Time;durP1;ratioP1;P1;durP2;ratioP2;P2;SDS_P1;SDS_P2;PMS_P1;PMS_P2;Temp;Humidity;BMP_temperature;BMP_pressure;BME280_temperature;BME280_humidity;BME280_pressure;Samples;Min_cycle;Max_cycle;Signal;HPM_P1;HPM_P2
2022/04/17 00:00:29;;;;;;;14.63;7.75;;;5.50;99.90;;;;;;4933631;29;20047;-80
2022/04/17 00:02:55;;;;;;;14.93;8.40;;;5.50;99.90;;;;;;4947132;28;20049;-80
2022/04/17 00:05:21;;;;;;;14.93;8.82;;;5.50;99.90;;;;;;4931432;29;20118;-80
2022/04/17 00:07:47;;;;;;;15.00;8.13;;;5.50;99.90;;;;;;4933684;28;20070;-80
2022/04/17 00:10:13;;;;;;;15.32;8.23;;;5.40;99.90;;;;;;4948887;28;20054;-80
2022/04/17 00:12:39;;;;;;;14.85;7.55;;;6.00;99.90;;;;;;4950078;28;20049;-80
2022/04/17 00:15:06;;;;;;;14.18;7.45;;;5.40;99.90;;;;;;4936826;28;21126;-80
2022/04/17 00:17:32;;;;;;;13.95;7.28;;;5.40;99.90;;;;;;4970342;28;20042;-80
2022/04/17 00:19:58;;;;;;;13.40;7.70;;;5.40;99.90;;;;;;4950813;28;20031;-80
2022/04/17 00:22:25;;;;;;;14.18;7.93;;;5.40;99.90;;;;;;4947552;28;20042;-80
2022/04/17 00:24:52;;;;;;;14.88;8.00;;;5.30;99.90;;;;;;4949582;28;20058;-80
2022/04/17 00:27:18;;;;;;;15.35;8.10;;;6.40;99.90;;;;;;4949759;28;20042;-80
2022/04/17 00:29:44;;;;;;;15.38;8.45;;;6.00;99.90;;;;;;4946333;28;21726;-80
2022/04/17 00:32:12;;;;;;;15.13;8.00;;;5.20;99.90;;;;;;4949342;28;20496;-80
2022/04/17 00:34:38;;;;;;;13.65;7.05;;;5.60;99.90;;;;;;4917208;29;20031;-80
2022/04/17 00:37:05;;;;;;;15.32;7.60;;;5.10;99.90;;;;;;4932670;29;20413;-80
2022/04/17 00:39:31;;;;;;;14.05;7.57;;;5.10;99.90;;;;;;4962451;28;20397;-80
2022/04/17 00:41:58;;;;;;;14.48;7.68;;;5.50;99.90;;;;;;4917433;28;20488;-80
2022/04/17 00:44:24;;;;;;;13.88;7.63;;;5.10;99.90;;;;;;4949803;28;20034;-80
2022/04/17 00:46:50;;;;;;;14.88;7.85;;;5.10;99.90;;;;;;4949025;28;20432;-80
2022/04/17 00:49:15;;;;;;;14.77;7.78;;;5.00;99.90;;;;;;4901779;28;20046;-80
2022/04/17 00:51:43;;;;;;;14.80;8.13;;;5.30;99.90;;;;;;4933344;29;20043;-80
2022/04/17 00:54:12;;;;;;;13.43;7.43;;;5.00;99.90;;;;;;4949261;28;20487;-80
2022/04/17 00:56:38;;;;;;;14.02;7.95;;;5.00;99.90;;;;;;4933250;28;20055;-80
2022/04/17 00:59:06;;;;;;;13.07;7.85;;;5.00;99.90;;;;;;4931860;29;20296;-80
2022/04/17 01:01:33;;;;;;;14.15;8.45;;;5.00;99.90;;;;;;4949371;28;20046;-80
2022/04/17 01:04:03;;;;;;;15.40;8.57;;;4.90;99.90;;;;;;4937309;28;20039;-80
2022/04/17 01:06:31;;;;;;;15.57;8.10;;;4.90;99.90;;;;;;4932953;29;20074;-80
2022/04/17 01:08:58;;;;;;;15.30;8.05;;;4.90;99.90;;;;;;4948030;28;20415;-80
2022/04/17 01:11:24;;;;;;;14.75;8.20;;;6.00;99.90;;;;;;4948094;28;20045;-80
2022/04/17 01:13:52;;;;;;;15.38;8.10;;;4.80;99.90;;;;;;4931845;28;20050;-80
2022/04/17 01:16:19;;;;;;;14.50;8.05;;;5.10;99.90;;;;;;4949231;28;20500;-80
2022/04/17 01:19:11;;;;;;;16.55;8.48;;;4.80;99.90;;;;;;4948411;28;20118;-80
2022/04/17 01:21:37;;;;;;;16.08;7.97;;;4.90;99.90;;;;;;4948054;28;20043;-80
2022/04/17 01:26:56;;;;;;;15.45;8.20;;;4.70;99.90;;;;;;4935228;29;20093;-80
2022/04/17 01:29:26;;;;;;;14.82;7.97;;;4.70;99.90;;;;;;4930869;29;20043;-80
2022/04/17 01:31:53;;;;;;;15.52;8.05;;;4.70;99.90;;;;;;4948643;28;20127;-80
2022/04/17 01:34:21;;;;;;;14.57;7.82;;;4.60;99.90;;;;;;4932928;28;20215;-80
2022/04/17 01:36:49;;;;;;;15.43;8.02;;;5.00;99.90;;;;;;4950651;28;20078;-80
2022/04/17 01:39:15;;;;;;;15.18;8.73;;;4.60;99.90;;;;;;4947995;28;20522;-80
2022/04/17 01:41:41;;;;;;;13.73;7.63;;;4.90;99.90;;;;;;4948540;28;20054;-80
2022/04/17 01:44:07;;;;;;;14.90;7.93;;;5.20;99.90;;;;;;4917014;28;20126;-80
2022/04/17 01:46:33;;;;;;;13.93;7.90;;;4.50;99.90;;;;;;4949128;28;20130;-80
2022/04/17 01:49:00;;;;;;;13.65;8.05;;;4.40;99.90;;;;;;4948238;28;20555;-80
2022/04/17 01:51:26;;;;;;;15.93;8.45;;;4.40;99.90;;;;;;4932171;28;20047;-80
2022/04/17 01:53:52;;;;;;;14.82;7.93;;;5.00;99.90;;;;;;4947369;28;20086;-80
2022/04/17 01:56:18;;;;;;;13.00;7.28;;;4.40;99.90;;;;;;4931723;29;20455;-80
2022/04/17 01:58:44;;;;;;;14.98;8.25;;;5.30;99.90;;;;;;4949216;28;20055;-80
2022/04/17 02:01:10;;;;;;;14.80;8.02;;;4.30;99.90;;;;;;4948187;28;20035;-80
2022/04/17 02:03:36;;;;;;;13.57;7.70;;;4.30;99.90;;;;;;4932092;29;20039;-80
2022/04/17 02:06:02;;;;;;;16.45;7.63;;;4.30;99.90;;;;;;4931701;29;20046;-80
2022/04/17 02:08:31;;;;;;;15.10;7.55;;;4.30;99.90;;;;;;4947586;28;20047;-80
2022/04/17 02:10:57;;;;;;;16.20;7.93;;;4.80;99.90;;;;;;4917972;28;20357;-80
2022/04/17 02:13:27;;;;;;;15.90;8.70;;;4.20;99.90;;;;;;4932803;28;20122;-80
2022/04/17 02:15:53;;;;;;;16.05;7.45;;;4.20;99.90;;;;;;4933064;29;20338;-80
2022/04/17 02:18:22;;;;;;;14.70;7.63;;;4.20;99.90;;;;;;4930886;29;20290;-80
2022/04/17 02:20:48;;;;;;;13.43;7.53;;;4.20;99.90;;;;;;4947501;28;20031;-80
2022/04/17 02:23:14;;;;;;;14.32;7.65;;;4.20;99.90;;;;;;4930743;29;20526;-80
2022/04/17 02:25:40;;;;;;;15.20;7.60;;;4.10;99.90;;;;;;4948451;28;20461;-80
2022/04/17 02:28:07;;;;;;;15.20;7.55;;;4.10;99.90;;;;;;4932119;29;20408;-80
2022/04/17 02:30:33;;;;;;;14.40;7.35;;;4.10;99.90;;;;;;4931366;29;20190;-80
2022/04/17 02:32:59;;;;;;;13.00;7.38;;;4.50;99.90;;;;;;4947329;28;20046;-80
2022/04/17 02:35:25;;;;;;;14.65;7.90;;;4.10;99.90;;;;;;4915513;29;20039;-80
2022/04/17 02:37:50;;;;;;;16.50;8.20;;;4.10;99.90;;;;;;4900681;28;21535;-80
2022/04/17 02:40:16;;;;;;;13.90;7.40;;;4.80;99.90;;;;;;4948628;28;20040;-80
2022/04/17 02:42:43;;;;;;;14.05;7.75;;;4.70;99.90;;;;;;4950539;28;20042;-80
2022/04/17 02:45:09;;;;;;;14.13;7.78;;;4.00;99.90;;;;;;4921165;29;20067;-80
2022/04/17 02:47:44;;;;;;;15.25;7.90;;;4.00;99.90;;;;;;4934778;29;20507;-80
2022/04/17 02:50:15;;;;;;;14.00;7.28;;;4.00;99.90;;;;;;4951577;29;20035;-80
2022/04/17 02:52:41;;;;;;;14.40;7.45;;;5.20;99.90;;;;;;4964888;28;20492;-80
2022/04/17 02:55:08;;;;;;;13.57;7.88;;;3.90;99.90;;;;;;4952940;28;20096;-80
2022/04/17 02:57:34;;;;;;;14.73;7.90;;;3.90;99.90;;;;;;4951798;28;20043;-80
2022/04/17 03:00:00;;;;;;;16.58;8.27;;;3.90;99.90;;;;;;4950449;28;20086;-80
2022/04/17 03:07:55;;;;;;;17.13;10.27;;;3.80;99.90;;;;;;4950915;28;20570;-80
2022/04/17 03:10:21;;;;;;;17.70;10.60;;;4.50;99.90;;;;;;4949829;28;20043;-80
2022/04/17 03:12:48;;;;;;;18.02;10.52;;;3.80;99.90;;;;;;4935916;28;20105;-80
2022/04/17 03:15:13;;;;;;;17.08;10.65;;;3.80;99.90;;;;;;4952034;28;20484;-80
2022/04/17 03:17:39;;;;;;;18.63;11.38;;;3.70;99.90;;;;;;4936652;28;20045;-80
2022/04/17 03:20:06;;;;;;;19.60;12.77;;;3.70;99.90;;;;;;4950419;28;20548;-80
2022/04/17 03:22:33;;;;;;;21.45;14.48;;;3.60;99.90;;;;;;4951958;28;20370;-79
2022/04/17 03:25:04;;;;;;;22.77;14.60;;;3.60;99.90;;;;;;4951267;28;20043;-80
2022/04/17 03:27:30;;;;;;;24.83;15.90;;;3.60;99.90;;;;;;4951440;28;20035;-80
2022/04/17 03:29:57;;;;;;;24.58;16.05;;;3.00;99.90;;;;;;4936250;29;20481;-80
2022/04/17 03:32:22;;;;;;;26.30;16.65;;;4.40;99.90;;;;;;4933219;29;20054;-80
2022/04/17 03:34:48;;;;;;;24.42;16.88;;;3.60;99.90;;;;;;4949318;28;20044;-80
2022/04/17 03:37:14;;;;;;;26.95;18.80;;;3.60;99.90;;;;;;4953675;28;20063;-80
2022/04/17 03:39:41;;;;;;;28.40;19.92;;;3.60;99.90;;;;;;4933913;28;20145;-80
2022/04/17 03:42:07;;;;;;;27.40;18.42;;;3.60;99.90;;;;;;4917964;29;20050;-80
2022/04/17 03:44:33;;;;;;;29.55;20.20;;;3.60;99.90;;;;;;4950959;28;20047;-80
2022/04/17 03:46:59;;;;;;;30.58;20.50;;;3.50;99.90;;;;;;4935348;28;20039;-79
2022/04/17 03:49:25;;;;;;;29.20;20.48;;;3.50;99.90;;;;;;4950174;28;20480;-80
2022/04/17 03:51:51;;;;;;;31.85;22.65;;;3.50;99.90;;;;;;4933703;29;20043;-80
2022/04/17 03:54:17;;;;;;;34.03;22.05;;;3.50;99.90;;;;;;4935090;29;20039;-80
2022/04/17 03:56:44;;;;;;;31.98;21.38;;;3.40;99.90;;;;;;4951190;28;20527;-80
2022/04/17 03:59:10;;;;;;;29.38;20.48;;;3.40;99.90;;;;;;4951673;28;20460;-80
2022/04/17 04:01:36;;;;;;;31.95;22.05;;;3.40;99.90;;;;;;4933456;28;20046;-80
2022/04/17 04:04:02;;;;;;;35.17;22.95;;;3.40;99.90;;;;;;4951121;28;20043;-79
2022/04/17 04:06:27;;;;;;;33.90;23.70;;;3.40;99.90;;;;;;4936798;28;20129;-80
2022/04/17 04:08:53;;;;;;;35.20;23.63;;;3.30;99.90;;;;;;4949839;28;20039;-80
2022/04/17 04:11:19;;;;;;;31.45;22.85;;;3.30;99.90;;;;;;4935449;28;20199;-80
2022/04/17 04:13:45;;;;;;;33.78;23.17;;;3.30;99.90;;;;;;4935171;28;20070;-80
2022/04/17 04:16:11;;;;;;;34.35;23.33;;;3.30;99.90;;;;;;4950710;28;20050;-80
2022/04/17 04:18:37;;;;;;;33.30;23.13;;;3.30;99.90;;;;;;4937026;28;20642;-79
2022/04/17 04:21:03;;;;;;;33.72;23.45;;;3.20;99.90;;;;;;4933252;29;20189;-80
2022/04/17 04:23:33;;;;;;;34.97;24.00;;;3.20;99.90;;;;;;4949666;29;20039;-80
2022/04/17 04:25:59;;;;;;;35.42;24.77;;;3.20;99.90;;;;;;4951568;28;20058;-79
2022/04/17 04:28:38;;;;;;;35.53;25.10;;;3.10;99.90;;;;;;4951235;28;20499;-80
2022/04/17 04:31:06;;;;;;;35.22;24.45;;;3.10;99.90;;;;;;4933823;29;20270;-80
2022/04/17 04:33:33;;;;;;;35.33;24.42;;;3.10;99.90;;;;;;4948983;29;20054;-80
2022/04/17 04:35:59;;;;;;;39.08;24.95;;;3.40;99.90;;;;;;4934113;28;20031;-80
2022/04/17 04:38:25;;;;;;;35.70;24.58;;;3.50;99.90;;;;;;4932865;29;20445;-80
2022/04/17 04:40:52;;;;;;;37.55;24.67;;;3.00;99.90;;;;;;4935312;28;20062;-80
2022/04/17 04:43:18;;;;;;;35.78;24.63;;;3.00;99.90;;;;;;4949604;28;20049;-80
2022/04/17 04:51:13;;;;;;;35.67;24.42;;;3.00;99.90;;;;;;4949193;28;20049;-80
2022/04/17 04:53:39;;;;;;;39.50;25.33;;;3.30;99.90;;;;;;4950066;28;20050;-80
2022/04/17 04:56:06;;;;;;;38.08;24.33;;;3.10;99.90;;;;;;4947525;28;20059;-79
2022/04/17 04:58:31;;;;;;;36.08;25.25;;;4.10;99.90;;;;;;4933035;29;20058;-80
2022/04/17 05:00:57;;;;;;;35.65;25.02;;;3.50;99.90;;;;;;4932739;29;20035;-80
2022/04/17 05:03:23;;;;;;;34.67;23.83;;;4.10;99.90;;;;;;4952931;28;20047;-80
2022/04/17 05:05:48;;;;;;;35.25;23.52;;;3.10;99.90;;;;;;4947591;28;20043;-80
2022/04/17 05:08:14;;;;;;;35.10;24.60;;;3.10;99.90;;;;;;4933380;29;20039;-80
2022/04/17 05:10:40;;;;;;;36.60;24.60;;;3.10;99.90;;;;;;4949117;28;20106;-80
2022/04/17 05:13:05;;;;;;;36.08;25.05;;;3.10;99.90;;;;;;4932648;29;20496;-80
2022/04/17 05:15:31;;;;;;;37.55;24.02;;;3.20;99.90;;;;;;4931499;28;20047;-79
2022/04/17 05:17:57;;;;;;;34.83;23.70;;;3.20;99.90;;;;;;4948117;28;20051;-80
2022/04/17 05:20:23;;;;;;;35.45;24.20;;;3.20;99.90;;;;;;4947400;28;20050;-80
2022/04/17 05:22:56;;;;;;;33.28;22.60;;;3.90;99.90;;;;;;4965276;28;20066;-80
2022/04/17 05:25:22;;;;;;;32.78;22.98;;;3.40;99.90;;;;;;4931391;29;20243;-79
2022/04/17 05:27:48;;;;;;;32.83;22.58;;;3.50;99.90;;;;;;4963989;28;20038;-80
2022/04/17 05:30:14;;;;;;;31.98;20.90;;;3.50;99.90;;;;;;4930866;29;20032;-80
2022/04/17 05:32:40;;;;;;;30.73;21.35;;;4.40;99.90;;;;;;4932743;28;20121;-80
2022/04/17 05:35:06;;;;;;;30.25;19.63;;;5.00;99.90;;;;;;4927896;29;20074;-80
2022/04/17 05:37:32;;;;;;;28.95;19.90;;;3.80;99.90;;;;;;4946705;28;20118;-80
2022/04/17 05:39:57;;;;;;;26.67;18.70;;;3.90;99.90;;;;;;4948840;28;20130;-80
2022/04/17 05:42:23;;;;;;;28.23;18.73;;;4.20;99.90;;;;;;4932524;28;20051;-80
2022/04/17 05:44:52;;;;;;;27.83;18.88;;;4.20;99.90;;;;;;4947758;28;20050;-80
2022/04/17 05:47:19;;;;;;;27.20;18.27;;;4.30;99.90;;;;;;4929653;29;20035;-80
2022/04/17 05:49:44;;;;;;;28.65;17.65;;;5.40;99.90;;;;;;4945034;28;20071;-80
2022/04/17 05:52:12;;;;;;;25.52;17.33;;;5.50;99.90;;;;;;4949623;28;20078;-80
2022/04/17 05:54:43;;;;;;;24.85;16.60;;;4.70;99.90;;;;;;4932563;29;20373;-80
2022/04/17 05:57:09;;;;;;;24.52;16.48;;;4.80;99.90;;;;;;4946352;29;20114;-80
2022/04/17 05:59:36;;;;;;;24.88;16.65;;;5.00;99.90;;;;;;4948669;28;20051;-80
2022/04/17 06:02:03;;;;;;;25.33;16.17;;;5.20;99.90;;;;;;4948478;29;20114;-80
2022/04/17 06:04:29;;;;;;;25.58;17.20;;;5.30;99.90;;;;;;4935618;29;20078;-80
2022/04/17 06:06:54;;;;;;;25.88;16.23;;;5.50;99.90;;;;;;4948928;28;20039;-80
2022/04/17 06:09:20;;;;;;;27.17;16.63;;;6.20;99.90;;;;;;4932729;29;20516;-80
2022/04/17 06:11:47;;;;;;;24.63;16.45;;;5.70;99.90;;;;;;4948821;29;20035;-80
2022/04/17 06:14:12;;;;;;;23.60;15.63;;;5.90;99.90;;;;;;4931627;28;20042;-80
2022/04/17 06:16:39;;;;;;;22.90;15.02;;;6.10;99.90;;;;;;4935823;29;20035;-79
2022/04/17 06:19:05;;;;;;;24.38;15.23;;;6.70;99.90;;;;;;4919569;29;20043;-80
2022/04/17 06:21:31;;;;;;;23.60;14.48;;;7.10;99.90;;;;;;4937792;29;20158;-80
2022/04/17 06:23:57;;;;;;;21.77;13.52;;;6.60;99.90;;;;;;4936576;29;20047;-80
2022/04/17 06:26:22;;;;;;;20.38;12.68;;;6.70;99.90;;;;;;4936098;29;20075;-80
2022/04/17 06:28:48;;;;;;;22.13;12.65;;;6.90;99.90;;;;;;4954878;28;20039;-80
2022/04/17 06:31:14;;;;;;;20.15;12.00;;;8.30;99.90;;;;;;4954022;28;20035;-80
2022/04/17 06:33:40;;;;;;;20.17;12.13;;;7.30;99.90;;;;;;4949867;28;20042;-80
2022/04/17 06:36:05;;;;;;;22.17;12.30;;;7.50;99.90;;;;;;4933661;28;20031;-80
2022/04/17 06:38:31;;;;;;;21.05;11.93;;;7.60;99.90;;;;;;4932604;28;20055;-80
2022/04/17 06:40:57;;;;;;;19.15;11.77;;;7.70;99.90;;;;;;4953377;28;20035;-80
2022/04/17 06:43:23;;;;;;;21.83;11.65;;;7.90;99.90;;;;;;4953805;28;20071;-80
2022/04/17 06:45:49;;;;;;;20.67;11.35;;;8.10;99.90;;;;;;4936072;29;20117;-80
2022/04/17 06:48:21;;;;;;;18.88;11.73;;;8.10;99.90;;;;;;4937956;29;20484;-80
2022/04/17 06:50:48;;;;;;;23.60;11.88;;;8.30;99.90;;;;;;4935870;29;20120;-80
2022/04/17 06:53:15;;;;;;;20.45;12.55;;;8.50;99.90;;;;;;4951860;28;20083;-80
2022/04/17 06:55:40;;;;;;;20.65;10.75;;;9.10;99.90;;;;;;4951484;28;20083;-80
2022/04/17 06:58:07;;;;;;;18.55;10.52;;;9.30;99.90;;;;;;4951023;28;20077;-80
2022/04/17 07:00:34;;;;;;;18.35;10.23;;;8.90;99.90;;;;;;4952205;28;20031;-80
2022/04/17 07:02:59;;;;;;;18.83;10.55;;;9.00;99.90;;;;;;4951504;29;20089;-80
2022/04/17 07:05:25;;;;;;;16.88;10.10;;;9.10;99.90;;;;;;4950580;28;20055;-81
2022/04/17 07:07:59;;;;;;;18.83;9.98;;;9.20;99.90;;;;;;4951279;28;20054;-80
2022/04/17 07:10:27;;;;;;;18.08;10.25;;;9.50;99.90;;;;;;4935201;29;20050;-80
2022/04/17 07:12:53;;;;;;;17.20;10.45;;;9.40;99.90;;;;;;4951031;28;20040;-80
2022/04/17 07:15:22;;;;;;;17.40;10.13;;;9.60;99.90;;;;;;4935357;29;20055;-81
2022/04/17 07:17:48;;;;;;;16.05;9.95;;;9.60;99.90;;;;;;4936278;29;20047;-80
2022/04/17 07:20:15;;;;;;;17.77;9.85;;;9.80;99.90;;;;;;4948817;28;20055;-80
2022/04/17 07:22:42;;;;;;;17.67;9.82;;;9.90;99.90;;;;;;4950705;29;20126;-80
2022/04/17 07:25:10;;;;;;;16.00;9.68;;;10.00;99.90;;;;;;4951258;28;20095;-81
2022/04/17 07:27:36;;;;;;;17.33;10.23;;;10.10;99.90;;;;;;4934054;29;20093;-81
2022/04/17 07:30:10;;;;;;;17.15;9.18;;;10.20;99.90;;;;;;4951971;28;20039;-80
2022/04/17 07:32:36;;;;;;;17.35;9.02;;;10.40;99.90;;;;;;4950182;28;20035;-81
2022/04/17 07:35:02;;;;;;;14.82;8.90;;;10.40;99.90;;;;;;4933794;29;20090;-81
2022/04/17 07:37:28;;;;;;;14.73;8.60;;;10.60;99.90;;;;;;4951210;28;20076;-80
2022/04/17 07:39:53;;;;;;;14.05;8.35;;;10.70;99.90;;;;;;4951158;29;20047;-81
2022/04/17 07:42:20;;;;;;;15.85;8.48;;;10.80;99.90;;;;;;4950397;28;20412;-81
2022/04/17 07:44:48;;;;;;;15.30;8.48;;;10.80;99.90;;;;;;4950667;28;20055;-80
2022/04/17 07:47:14;;;;;;;15.18;9.85;;;10.90;99.90;;;;;;4934963;29;20500;-80
2022/04/17 07:49:41;;;;;;;15.55;9.88;;;11.00;99.90;;;;;;4936239;28;20042;-81
2022/04/17 07:52:07;;;;;;;17.95;12.18;;;11.10;99.90;;;;;;4948830;28;20034;-81
2022/04/17 07:54:33;;;;;;;16.60;10.88;;;11.20;99.90;;;;;;4933771;29;20039;-81
2022/04/17 07:56:59;;;;;;;15.48;7.65;;;11.20;99.90;;;;;;4919024;28;20065;-81
2022/04/17 07:59:25;;;;;;;13.98;7.18;;;11.30;99.90;;;;;;4936185;29;20085;-80
2022/04/17 08:02:01;;;;;;;12.52;7.00;;;11.20;99.90;;;;;;4933214;29;20034;-80
2022/04/17 08:04:27;;;;;;;15.55;10.13;;;11.40;99.90;;;;;;4948257;28;20043;-81
2022/04/17 08:06:54;;;;;;;13.13;7.05;;;11.50;99.90;;;;;;4933948;29;20152;-81
2022/04/17 08:09:19;;;;;;;12.93;7.13;;;11.60;99.90;;;;;;4935756;29;20051;-81
2022/04/17 08:11:51;;;;;;;11.68;6.40;;;11.60;99.90;;;;;;4936000;29;20043;-81
2022/04/17 08:14:18;;;;;;;13.07;7.18;;;11.70;99.90;;;;;;4936614;29;20448;-81
2022/04/17 08:16:44;;;;;;;13.27;7.03;;;11.70;99.90;;;;;;4951319;28;20043;-81
2022/04/17 08:19:10;;;;;;;12.70;7.43;;;11.80;99.90;;;;;;4934845;29;20047;-81
2022/04/17 08:21:36;;;;;;;12.45;6.47;;;12.00;99.90;;;;;;4934084;29;20527;-81
2022/04/17 08:24:02;;;;;;;13.00;7.20;;;12.10;99.90;;;;;;4934308;29;20070;-81
2022/04/17 08:26:27;;;;;;;12.23;6.75;;;12.10;99.90;;;;;;4950586;28;20500;-81
2022/04/17 08:28:53;;;;;;;13.68;7.60;;;12.20;99.90;;;;;;4934602;28;20050;-81
2022/04/17 08:31:19;;;;;;;12.82;6.93;;;12.20;99.90;;;;;;4950152;29;20090;-81
2022/04/17 08:33:44;;;;;;;13.35;7.07;;;12.30;99.90;;;;;;4933944;29;20039;-81
2022/04/17 08:36:12;;;;;;;12.73;6.85;;;12.50;99.90;;;;;;4934758;29;20122;-81
2022/04/17 08:38:38;;;;;;;11.68;6.45;;;12.70;99.90;;;;;;4926354;29;20046;-81
2022/04/17 08:41:05;;;;;;;12.25;6.30;;;12.60;99.90;;;;;;4935746;29;20046;-81
2022/04/17 08:43:32;;;;;;;11.90;5.63;;;12.70;99.90;;;;;;4918622;29;20493;-81
2022/04/17 08:45:58;;;;;;;10.75;5.47;;;12.80;99.90;;;;;;4933745;29;20207;-81
2022/04/17 08:48:24;;;;;;;12.80;6.43;;;12.80;99.90;;;;;;4933884;28;20801;-81
2022/04/17 08:50:54;;;;;;;12.68;5.75;;;12.90;99.90;;;;;;4918493;29;20456;-81
2022/04/17 08:53:21;;;;;;;12.52;6.32;;;12.90;99.90;;;;;;4949941;28;20049;-81
2022/04/17 08:55:49;;;;;;;10.95;5.70;;;13.00;99.90;;;;;;4949124;28;20057;-81
2022/04/17 08:58:14;;;;;;;10.90;5.47;;;13.20;99.90;;;;;;4965960;28;20058;-81
2022/04/17 09:00:40;;;;;;;10.30;5.35;;;13.20;99.90;;;;;;4919437;29;20035;-81
2022/04/17 09:03:09;;;;;;;10.13;5.13;;;13.30;99.90;;;;;;4933804;29;20547;-81
2022/04/17 09:05:38;;;;;;;11.20;5.68;;;13.40;99.90;;;;;;4948963;29;20047;-81
2022/04/17 09:08:15;;;;;;;11.18;5.32;;;13.50;99.90;;;;;;4951225;28;20046;-81
2022/04/17 09:10:51;;;;;;;11.60;5.20;;;13.50;99.90;;;;;;4943862;28;20510;-81
2022/04/17 09:13:31;;;;;;;10.27;4.55;;;13.60;99.90;;;;;;4951285;29;20381;-81
2022/04/17 09:15:58;;;;;;;11.30;5.10;;;13.70;99.90;;;;;;4949632;29;20090;-81
2022/04/17 09:18:27;;;;;;;11.88;5.97;;;13.80;99.90;;;;;;4950219;28;20054;-81
2022/04/17 09:20:54;;;;;;;13.48;7.03;;;13.80;99.90;;;;;;4947364;29;20042;-81
2022/04/17 09:23:33;;;;;;;12.57;6.00;;;13.90;99.90;;;;;;4932894;29;20115;-81
2022/04/17 09:25:59;;;;;;;10.95;5.47;;;14.00;99.10;;;;;;4933760;28;20264;-81
2022/04/17 09:28:31;;;;;;;11.20;5.70;;;14.10;99.60;;;;;;4949864;28;20043;-81
2022/04/17 09:30:59;;;;;;;10.43;5.30;;;14.20;97.90;;;;;;4949295;29;20039;-81
2022/04/17 09:33:35;;;;;;;10.93;5.20;;;14.30;99.10;;;;;;4934029;29;20079;-81
2022/04/17 09:36:01;;;;;;;10.18;5.22;;;14.40;97.80;;;;;;4933075;29;20035;-81
2022/04/17 09:38:32;;;;;;;9.50;4.75;;;14.40;97.50;;;;;;4902037;29;20036;-81
2022/04/17 09:41:10;;;;;;;10.52;4.97;;;14.40;97.30;;;;;;4954703;28;20039;-81
2022/04/17 09:43:36;;;;;;;11.02;5.35;;;14.40;88.60;;;;;;4956135;28;20089;-81
2022/04/17 09:46:07;;;;;;;10.82;4.75;;;14.40;91.90;;;;;;4931114;29;20399;-81
2022/04/17 09:48:38;;;;;;;9.82;4.35;;;14.50;91.60;;;;;;4932259;29;20043;-81
2022/04/17 09:51:24;;;;;;;9.65;4.60;;;14.50;89.40;;;;;;4935185;29;20043;-81
2022/04/17 09:54:00;;;;;;;10.73;4.82;;;14.70;83.90;;;;;;4937613;28;20062;-81
2022/04/17 09:56:33;;;;;;;10.23;4.60;;;14.80;84.00;;;;;;4937580;29;20051;-81
2022/04/17 09:58:59;;;;;;;10.23;4.68;;;14.80;89.70;;;;;;4937056;29;20043;-81
2022/04/17 10:01:27;;;;;;;9.77;4.50;;;14.90;85.80;;;;;;4936480;28;20050;-81
2022/04/17 10:03:55;;;;;;;9.63;4.50;;;14.90;81.30;;;;;;4953274;28;20407;-81
2022/04/17 10:06:22;;;;;;;9.57;4.43;;;15.00;82.40;;;;;;4937954;28;20039;-81
2022/04/17 10:08:50;;;;;;;9.25;4.35;;;15.10;79.60;;;;;;4957231;28;20051;-82
2022/04/17 10:11:17;;;;;;;10.18;4.60;;;15.20;79.00;;;;;;4952306;29;20401;-81
2022/04/17 10:13:45;;;;;;;9.85;4.30;;;15.30;77.90;;;;;;4952489;28;20049;-82
2022/04/17 10:16:15;;;;;;;9.60;4.43;;;15.30;78.70;;;;;;4938621;28;20047;-82
2022/04/17 10:18:42;;;;;;;9.20;4.90;;;15.40;75.70;;;;;;4933182;28;20043;-81
2022/04/17 10:21:09;;;;;;;10.82;5.05;;;15.40;75.70;;;;;;4952065;29;20050;-82
2022/04/17 10:23:43;;;;;;;10.98;4.82;;;15.50;75.10;;;;;;4934639;28;20094;-82
2022/04/17 10:26:12;;;;;;;11.57;5.32;;;15.50;73.30;;;;;;4954652;28;20094;-82
2022/04/17 10:28:44;;;;;;;10.32;4.80;;;15.50;71.90;;;;;;4951695;28;20047;-82
2022/04/17 10:31:14;;;;;;;9.98;4.75;;;15.60;72.30;;;;;;4949747;28;20039;-81
2022/04/17 10:33:58;;;;;;;9.48;4.45;;;15.70;72.40;;;;;;4935761;29;20492;-82
2022/04/17 10:36:27;;;;;;;9.10;4.20;;;15.80;71.30;;;;;;4934608;28;20035;-82
2022/04/17 10:39:14;;;;;;;9.32;4.03;;;15.90;68.50;;;;;;4935189;29;20089;-82
2022/04/17 10:41:41;;;;;;;9.40;3.95;;;16.10;68.30;;;;;;4953146;29;20047;-81
2022/04/17 10:44:10;;;;;;;8.23;3.30;;;16.10;67.60;;;;;;4937110;29;20080;-82
2022/04/17 10:46:51;;;;;;;8.68;3.22;;;16.20;64.20;;;;;;4952390;28;20039;-82
2022/04/17 10:49:22;;;;;;;8.95;3.60;;;16.20;62.30;;;;;;4935950;29;20050;-82
2022/04/17 10:51:56;;;;;;;9.68;3.65;;;16.30;62.90;;;;;;4936125;28;20039;-82
2022/04/17 10:54:22;;;;;;;10.13;3.75;;;16.30;61.30;;;;;;4938181;28;20071;-82
2022/04/17 10:56:54;;;;;;;8.38;3.65;;;16.40;61.60;;;;;;4935413;29;20119;-82
2022/04/17 10:59:20;;;;;;;9.93;3.60;;;16.40;60.00;;;;;;4933245;29;20508;-82
2022/04/17 11:01:50;;;;;;;8.95;3.63;;;16.40;60.60;;;;;;4950547;28;20169;-82
2022/04/17 11:04:28;;;;;;;8.65;3.63;;;16.50;61.20;;;;;;4950053;28;20399;-82
2022/04/17 11:07:03;;;;;;;9.23;4.00;;;16.50;61.20;;;;;;4952353;29;20420;-82
2022/04/17 11:09:29;;;;;;;8.50;3.35;;;16.60;60.00;;;;;;4936787;29;20054;-82
2022/04/17 11:12:17;;;;;;;8.05;3.30;;;16.60;59.60;;;;;;4953621;28;20031;-82
2022/04/17 11:15:01;;;;;;;10.32;3.58;;;16.70;57.90;;;;;;4941913;28;20032;-82
2022/04/17 11:17:29;;;;;;;9.63;4.00;;;16.80;57.60;;;;;;4952049;28;20031;-81
2022/04/17 11:19:58;;;;;;;8.90;3.85;;;16.90;58.60;;;;;;4957292;28;20078;-82
2022/04/17 11:22:34;;;;;;;9.57;3.95;;;16.90;58.70;;;;;;4951774;28;20439;-81
2022/04/17 11:25:09;;;;;;;8.35;3.90;;;16.90;57.40;;;;;;4919902;29;20058;-82
2022/04/17 11:27:49;;;;;;;8.77;3.83;;;16.80;58.00;;;;;;4949363;28;20046;-82
2022/04/17 11:30:19;;;;;;;10.50;4.63;;;16.80;57.20;;;;;;4952318;28;20492;-82
2022/04/17 11:32:50;;;;;;;9.43;4.10;;;16.80;57.30;;;;;;4936536;28;20039;-82
2022/04/17 11:35:20;;;;;;;9.30;4.05;;;16.90;57.30;;;;;;4954442;28;20566;-82
2022/04/17 11:37:51;;;;;;;9.48;3.88;;;17.00;56.70;;;;;;4950682;28;20135;-82
2022/04/17 11:40:19;;;;;;;9.35;3.55;;;17.00;56.00;;;;;;4952098;29;20524;-81
2022/04/17 11:42:46;;;;;;;9.07;3.90;;;17.10;57.00;;;;;;4951948;28;20101;-81
2022/04/17 11:45:14;;;;;;;9.50;4.10;;;17.10;56.30;;;;;;4946479;28;20046;-81
2022/04/17 11:47:44;;;;;;;9.15;3.70;;;17.20;55.90;;;;;;4952725;28;20574;-82
2022/04/17 11:50:30;;;;;;;8.75;3.50;;;17.20;55.40;;;;;;4951714;29;20039;-81
2022/04/17 11:53:01;;;;;;;8.50;3.97;;;17.20;54.30;;;;;;4932849;29;20061;-81
2022/04/17 11:55:36;;;;;;;10.10;4.07;;;17.30;54.10;;;;;;4952285;28;20075;-81
2022/04/17 11:58:02;;;;;;;9.18;3.90;;;17.40;54.60;;;;;;4934599;29;20070;-81
2022/04/17 12:00:29;;;;;;;9.40;4.13;;;17.40;55.50;;;;;;4934848;29;20046;-81
2022/04/17 12:03:00;;;;;;;10.00;4.10;;;17.60;54.70;;;;;;4950299;29;20035;-81
2022/04/17 12:05:27;;;;;;;9.30;4.07;;;17.60;55.10;;;;;;4950234;28;20377;-81
2022/04/17 12:08:11;;;;;;;8.88;3.88;;;17.60;55.00;;;;;;4934770;29;20039;-81
2022/04/17 12:10:42;;;;;;;10.50;4.18;;;17.60;53.90;;;;;;4939788;29;20538;-82
2022/04/17 12:13:20;;;;;;;8.90;3.97;;;17.60;54.30;;;;;;4950794;28;20073;-81
2022/04/17 12:15:57;;;;;;;11.55;4.40;;;17.70;53.80;;;;;;4934142;28;20067;-82
2022/04/17 12:18:23;;;;;;;9.55;4.18;;;17.80;54.70;;;;;;4950622;28;20051;-81
2022/04/17 12:21:02;;;;;;;9.18;4.05;;;17.90;54.90;;;;;;4934336;29;20456;-81
2022/04/17 12:23:29;;;;;;;8.80;3.78;;;18.00;53.80;;;;;;4934833;29;20078;-81
2022/04/17 12:25:56;;;;;;;9.10;4.05;;;18.00;53.90;;;;;;4934332;29;20043;-81
2022/04/17 12:28:23;;;;;;;8.75;3.90;;;18.00;54.10;;;;;;4951467;28;20055;-81
2022/04/17 12:30:49;;;;;;;10.43;3.90;;;18.00;53.00;;;;;;4934447;29;20035;-81
2022/04/17 12:33:26;;;;;;;8.80;3.60;;;18.10;53.90;;;;;;4917522;28;20079;-81
2022/04/17 12:36:02;;;;;;;9.20;4.10;;;18.20;53.60;;;;;;4950313;28;20370;-82
2022/04/17 12:38:28;;;;;;;9.02;4.20;;;18.20;52.60;;;;;;4934629;29;20043;-81
2022/04/17 12:40:54;;;;;;;8.25;3.60;;;18.10;53.20;;;;;;4924829;29;20617;-81
2022/04/17 12:43:21;;;;;;;9.65;4.35;;;18.10;52.90;;;;;;4919022;29;20044;-81
2022/04/17 12:46:04;;;;;;;8.57;4.07;;;18.00;51.90;;;;;;4934025;29;20035;-81
2022/04/17 12:48:35;;;;;;;8.55;3.78;;;17.90;51.70;;;;;;4948507;28;20378;-81
2022/04/17 12:51:10;;;;;;;9.43;3.75;;;17.90;52.20;;;;;;4947574;28;20512;-81
2022/04/17 12:53:43;;;;;;;9.43;4.20;;;18.00;50.50;;;;;;4931733;28;20043;-81
2022/04/17 12:56:10;;;;;;;;;;;18.10;51.00;;;;;;4944687;28;20058;-81
2022/04/17 12:58:56;;;;;;;9.10;4.25;;;18.20;51.30;;;;;;4964218;28;19918;-81